createdAt,value
2023-05-13T00:00:11.138Z,100950.50
2023-05-13T00:03:14.656Z,100946.94
2023-05-13T00:06:17.402Z,100945.16
2023-05-13T00:09:20.342Z,100951.31
2023-05-13T00:12:22.958Z,100945.94
2023-05-13T00:15:25.808Z,100946.00
2023-05-13T00:18:28.276Z,100944.91
2023-05-13T00:21:34.901Z,100941.25
2023-05-13T00:24:38.036Z,100939.53
2023-05-13T00:27:41.028Z,100940.31
2023-05-13T00:30:45.489Z,100946.28
2023-05-13T00:33:48.935Z,100949.59
2023-05-13T00:36:51.704Z,100953.16
2023-05-13T00:39:54.707Z,100951.31
2023-05-13T00:42:57.755Z,100957.25
2023-05-13T00:46:00.867Z,100954.56
2023-05-13T00:49:05.225Z,100954.44
2023-05-13T00:52:08.032Z,100958.75
2023-05-13T00:55:11.996Z,100950.91
2023-05-13T00:58:15.117Z,100956.97
2023-05-13T01:01:34.307Z,100955.13
2023-05-13T01:04:44.069Z,100957.53
2023-05-13T01:07:59.359Z,100956.50
2023-05-13T01:11:10.582Z,100960.00
2023-05-13T01:14:22.193Z,100964.22
2023-05-13T01:17:44.924Z,100960.66
2023-05-13T01:20:48.036Z,100957.97
2023-05-13T01:23:50.677Z,100960.66
2023-05-13T01:26:53.735Z,100962.94
2023-05-13T01:29:57.378Z,100962.19
2023-05-13T01:33:01.425Z,100960.31
2023-05-13T01:36:07.060Z,100968.91
2023-05-13T01:39:13.295Z,100957.59
2023-05-13T01:42:16.739Z,100962.69
2023-05-13T01:45:19.806Z,100967.06
2023-05-13T01:48:24.121Z,100965.28
2023-05-13T01:51:27.316Z,100967.75
2023-05-13T01:54:30.562Z,100965.09
2023-05-13T01:57:33.778Z,100965.84
2023-05-13T02:00:36.546Z,100971.00
2023-05-13T02:03:39.833Z,100972.59
2023-05-13T02:06:42.379Z,100962.97
2023-05-13T02:09:45.358Z,100975.13
2023-05-13T02:12:48.008Z,100969.91
2023-05-13T02:15:50.844Z,100969.09
2023-05-13T02:18:54.526Z,100972.41
2023-05-13T02:22:02.661Z,100974.00
2023-05-13T02:25:07.061Z,100973.88
2023-05-13T02:28:12.268Z,100979.22
2023-05-13T02:31:15.191Z,100978.12
2023-05-13T02:34:18.547Z,100978.94
2023-05-13T02:37:21.529Z,100978.88
2023-05-13T02:40:33.753Z,100973.59
2023-05-13T02:43:37.745Z,100978.00
2023-05-13T02:46:40.771Z,100982.31
2023-05-13T02:49:43.840Z,100979.78
2023-05-13T02:52:46.880Z,100985.59
2023-05-13T02:55:50.345Z,100985.59
2023-05-13T02:58:53.271Z,100995.97
2023-05-13T03:01:55.909Z,100994.03
2023-05-13T03:04:58.867Z,100995.56
2023-05-13T03:08:01.340Z,100999.13
2023-05-13T03:11:04.941Z,100996.44
2023-05-13T03:14:08.278Z,101000.75
2023-05-13T03:17:11.811Z,100998.91
2023-05-13T03:20:14.697Z,100992.75
2023-05-13T03:23:17.997Z,101004.13
2023-05-13T03:26:21.890Z,100997.00
2023-05-13T03:29:31.949Z,100996.09
2023-05-13T03:32:35.433Z,101003.84
2023-05-13T03:35:39.024Z,101011.66
2023-05-13T03:38:41.988Z,101011.72
2023-05-13T03:41:46.029Z,101015.22
2023-05-13T03:44:49.569Z,101007.28
2023-05-13T03:47:54.043Z,101020.37
2023-05-13T03:50:59.441Z,101015.09
2023-05-13T03:54:04.107Z,101021.13
2023-05-13T03:57:14.802Z,101017.00
2023-05-13T04:00:21.281Z,101012.56
2023-05-13T04:03:25.089Z,101011.81
2023-05-13T04:06:35.453Z,101019.63
2023-05-13T04:09:39.169Z,101026.87
2023-05-13T04:12:42.707Z,101027.91
2023-05-13T04:15:45.813Z,101035.78
2023-05-13T04:18:51.522Z,101039.50
2023-05-13T04:21:54.920Z,101035.94
2023-05-13T04:25:02.481Z,101043.06
2023-05-13T04:28:07.193Z,101035.25
2023-05-13T04:31:13.264Z,101044.78
2023-05-13T04:34:16.518Z,101045.75
2023-05-13T04:37:20.533Z,101043.47
2023-05-13T04:40:23.706Z,101047.09
2023-05-13T04:43:28.662Z,101050.53
2023-05-13T04:46:32.146Z,101043.53
2023-05-13T04:49:35.229Z,101044.22
2023-05-13T04:52:42.927Z,101048.09
2023-05-13T04:55:49.880Z,101053.44
2023-05-13T04:58:56.693Z,101050.97
2023-05-13T05:01:59.989Z,101053.66
2023-05-13T05:05:08.621Z,101059.06
2023-05-13T05:08:11.910Z,101058.38
2023-05-13T05:11:15.477Z,101056.59
2023-05-13T05:14:21.638Z,101066.12
2023-05-13T05:17:25.639Z,101054.88
2023-05-13T05:20:28.938Z,101057.00
2023-05-13T05:23:35.013Z,101062.84
2023-05-13T05:26:39.790Z,101058.44
2023-05-13T05:29:44.019Z,101063.53
2023-05-13T05:32:57.725Z,101080.81
2023-05-13T05:36:03.506Z,101082.44
2023-05-13T05:39:06.350Z,101080.09
2023-05-13T05:42:10.504Z,101082.09
2023-05-13T05:45:13.492Z,101077.44
2023-05-13T05:48:20.189Z,101065.56
2023-05-13T05:51:23.085Z,101076.34
2023-05-13T05:54:34.600Z,101070.44
2023-05-13T05:57:45.789Z,101075.78
2023-05-13T06:00:50.932Z,101077.50
2023-05-13T06:03:55.480Z,101080.16
2023-05-13T06:06:58.839Z,101080.38
2023-05-13T06:10:08.338Z,101079.25
2023-05-13T06:13:18.752Z,101080.97
2023-05-13T06:16:24.978Z,101080.16
2023-05-13T06:19:39.498Z,101079.44
2023-05-13T06:22:42.726Z,101088.88
2023-05-13T06:25:52.965Z,101090.59
2023-05-13T06:28:56.785Z,101080.66
2023-05-13T06:31:59.774Z,101081.03
2023-05-13T06:35:05.500Z,101085.94
2023-05-13T06:38:09.063Z,101089.69
2023-05-13T06:41:16.539Z,101089.44
2023-05-13T06:44:21.450Z,101089.25
2023-05-13T06:47:44.398Z,101086.56
2023-05-13T06:50:53.357Z,101082.50
2023-05-13T06:53:57.304Z,101086.28
2023-05-13T06:57:09.494Z,101088.78
2023-05-13T07:00:22.639Z,101090.16
2023-05-13T07:03:40.591Z,101084.44
2023-05-13T07:06:46.460Z,101090.59
2023-05-13T07:09:49.895Z,101087.28
2023-05-13T07:12:56.534Z,101092.25
2023-05-13T07:16:07.609Z,101081.37
2023-05-13T07:19:12.661Z,101079.06
2023-05-13T07:22:16.721Z,101087.28
2023-05-13T07:25:25.870Z,101092.81
2023-05-13T07:28:29.718Z,101101.44
2023-05-13T07:31:37.439Z,101091.56
2023-05-13T07:34:41.064Z,101096.03
2023-05-13T07:37:50.457Z,101095.25
2023-05-13T07:40:55.469Z,101098.37
2023-05-13T07:44:13.142Z,101098.88
2023-05-13T07:47:16.710Z,101094.72
2023-05-13T07:50:22.470Z,101096.97
2023-05-13T07:53:27.509Z,101089.47
2023-05-13T07:56:32.342Z,101096.78
2023-05-13T07:59:49.478Z,101096.44
2023-05-13T08:02:58.657Z,101105.28
2023-05-13T08:06:03.676Z,101114.47
2023-05-13T08:09:10.412Z,101104.28
2023-05-13T08:12:18.468Z,101124.94
2023-05-13T08:15:29.808Z,101117.06
2023-05-13T08:18:35.507Z,101124.19
2023-05-13T08:21:47.701Z,101129.59
2023-05-13T08:24:54.504Z,101131.84
2023-05-13T08:28:04.500Z,101137.56
2023-05-13T08:31:13.841Z,101136.50
2023-05-13T08:34:18.983Z,101136.81
2023-05-13T08:37:25.441Z,101137.56
2023-05-13T08:40:29.254Z,101142.91
2023-05-13T08:43:38.481Z,101136.66
2023-05-13T08:46:56.390Z,101132.81
2023-05-13T08:50:07.563Z,101127.06
2023-05-13T08:53:14.669Z,101141.91
2023-05-13T08:56:19.956Z,101138.84
2023-05-13T08:59:24.177Z,101133.41
2023-05-13T09:02:28.689Z,101140.53
2023-05-13T09:05:39.610Z,101134.00
2023-05-13T09:08:49.413Z,101135.75
2023-05-13T09:11:54.476Z,101136.78
2023-05-13T09:15:00.477Z,101140.69
2023-05-13T09:18:08.535Z,101139.84
2023-05-13T09:21:39.400Z,101137.38
2023-05-13T09:24:57.750Z,101142.31
2023-05-13T09:28:03.940Z,101141.38
2023-05-13T09:31:06.913Z,101141.87
2023-05-13T09:34:13.466Z,101137.22
2023-05-13T09:37:31.589Z,101140.00
2023-05-13T09:40:49.762Z,101144.97
2023-05-13T09:43:53.352Z,101142.63
2023-05-13T09:46:58.783Z,101139.78
2023-05-13T09:50:04.015Z,101143.75
2023-05-13T09:53:13.535Z,101138.44
2023-05-13T09:56:33.354Z,101141.75
2023-05-13T09:59:38.157Z,101139.63
2023-05-13T10:02:49.896Z,101147.12
2023-05-13T10:05:55.248Z,101140.72
2023-05-13T10:09:09.328Z,101149.34
2023-05-13T10:12:21.800Z,101144.84
2023-05-13T10:15:29.433Z,101140.53
2023-05-13T10:18:34.495Z,101150.38
2023-05-13T10:21:46.524Z,101141.38
2023-05-13T10:24:49.929Z,101143.56
2023-05-13T10:27:53.522Z,101142.41
2023-05-13T10:30:57.334Z,101140.03
2023-05-13T10:34:08.374Z,101139.69
2023-05-13T10:37:51.572Z,101139.53
2023-05-13T10:41:17.400Z,101142.69
2023-05-13T10:44:24.446Z,101144.56
2023-05-13T10:47:31.295Z,101142.31
2023-05-13T10:50:56.969Z,101146.75
2023-05-13T10:54:19.529Z,101144.09
2023-05-13T10:58:11.467Z,101139.50
2023-05-13T11:01:29.073Z,101138.84
2023-05-13T11:04:36.433Z,101142.13
2023-05-13T11:07:42.252Z,101137.59
2023-05-13T11:10:55.865Z,101136.59
2023-05-13T11:14:00.426Z,101139.19
2023-05-13T11:17:05.115Z,101134.63
2023-05-13T11:20:12.631Z,101135.00
2023-05-13T11:23:22.475Z,101136.19
2023-05-13T11:26:39.404Z,101132.94
2023-05-13T11:29:50.847Z,101147.12
2023-05-13T11:33:09.402Z,101131.94
2023-05-13T11:36:37.644Z,101135.25
2023-05-13T11:39:46.876Z,101131.66
2023-05-13T11:42:51.678Z,101127.91
2023-05-13T11:46:07.533Z,101129.41
2023-05-13T11:49:13.167Z,101131.87
2023-05-13T11:52:20.474Z,101133.09
2023-05-13T11:55:34.427Z,101135.34
2023-05-13T11:58:41.028Z,101143.28
2023-05-13T12:02:03.529Z,101140.09
2023-05-13T12:05:11.854Z,101139.59
2023-05-13T12:08:17.988Z,101138.09
2023-05-13T12:11:28.013Z,101131.09
2023-05-13T12:14:35.437Z,101138.56
2023-05-13T12:17:41.028Z,101146.53
2023-05-13T12:20:51.691Z,101150.41
2023-05-13T12:23:59.458Z,101150.81
2023-05-13T12:27:11.771Z,101162.59
2023-05-13T12:30:19.781Z,101156.19
2023-05-13T12:33:23.708Z,101153.38
2023-05-13T12:36:39.129Z,101152.31
2023-05-13T12:39:45.506Z,101149.41
2023-05-13T12:42:51.842Z,101146.41
2023-05-13T12:46:01.529Z,101149.13
2023-05-13T12:49:15.105Z,101157.84
2023-05-13T12:52:27.532Z,101157.88
2023-05-13T12:55:39.352Z,101158.94
2023-05-13T12:58:47.436Z,101140.25
2023-05-13T13:01:51.592Z,101144.09
2023-05-13T13:04:59.426Z,101148.38
2023-05-13T13:08:07.203Z,101146.59
2023-05-13T13:11:10.565Z,101144.50
2023-05-13T13:14:13.816Z,101140.25
2023-05-13T13:17:17.819Z,101143.62
2023-05-13T13:20:22.599Z,101148.72
2023-05-13T13:23:26.284Z,101145.37
2023-05-13T13:26:40.478Z,101151.22
2023-05-13T13:29:46.053Z,101148.91
2023-05-13T13:32:50.849Z,101148.25
2023-05-13T13:35:54.076Z,101157.25
2023-05-13T13:38:57.938Z,101147.81
2023-05-13T13:42:04.804Z,101143.16
2023-05-13T13:45:12.851Z,101155.22
2023-05-13T13:48:15.776Z,101148.97
2023-05-13T13:51:23.724Z,101141.84
2023-05-13T13:54:36.373Z,101139.72
2023-05-13T13:57:41.713Z,101138.78
2023-05-13T14:00:44.901Z,101129.31
2023-05-13T14:03:56.621Z,101127.16
2023-05-13T14:07:08.399Z,101122.56
2023-05-13T14:10:15.092Z,101136.59
2023-05-13T14:13:24.555Z,101131.16
2023-05-13T14:16:42.442Z,101133.53
2023-05-13T14:19:56.221Z,101125.69
2023-05-13T14:23:11.397Z,101123.62
2023-05-13T14:26:23.516Z,101127.63
2023-05-13T14:29:27.860Z,101117.12
2023-05-13T14:32:34.469Z,101112.78
2023-05-13T14:35:37.899Z,101111.03
2023-05-13T14:38:44.896Z,101112.47
2023-05-13T14:41:48.125Z,101107.25
2023-05-13T14:44:52.225Z,101108.97
2023-05-13T14:48:06.587Z,101101.94
2023-05-13T14:51:19.629Z,101106.31
2023-05-13T14:54:42.358Z,101108.25
2023-05-13T14:57:49.630Z,101098.84
2023-05-13T15:01:10.705Z,101095.69
2023-05-13T15:04:14.524Z,101099.19
2023-05-13T15:07:24.481Z,101095.03
2023-05-13T15:10:29.491Z,101094.13
2023-05-13T15:13:35.510Z,101093.47
2023-05-13T15:16:43.482Z,101095.94
2023-05-13T15:19:54.717Z,101106.34
2023-05-13T15:23:09.528Z,101109.00
2023-05-13T15:26:15.516Z,101106.19
2023-05-13T15:29:22.717Z,101104.16
2023-05-13T15:32:27.546Z,101099.72
2023-05-13T15:35:30.624Z,101109.34
2023-05-13T15:38:37.484Z,101109.97
2023-05-13T15:41:44.137Z,101103.16
2023-05-13T15:45:00.362Z,101113.94
2023-05-13T15:48:05.467Z,101112.59
2023-05-13T15:51:11.669Z,101115.41
2023-05-13T15:54:18.914Z,101101.47
2023-05-13T15:57:22.476Z,101104.13
2023-05-13T16:00:26.982Z,101102.59
2023-05-13T16:03:31.976Z,101109.78
2023-05-13T16:06:36.187Z,101114.81
2023-05-13T16:09:44.897Z,101112.94
2023-05-13T16:12:50.678Z,101114.34
2023-05-13T16:15:56.518Z,101106.44
2023-05-13T16:19:03.655Z,101107.28
2023-05-13T16:22:29.198Z,101110.78
2023-05-13T16:25:34.452Z,101109.72
2023-05-13T16:28:39.500Z,101105.34
2023-05-13T16:31:53.060Z,101104.56
2023-05-13T16:34:59.433Z,101097.41
2023-05-13T16:38:02.947Z,101099.19
2023-05-13T16:41:14.474Z,101107.87
2023-05-13T16:44:34.412Z,101107.63
2023-05-13T16:47:43.498Z,101105.72
2023-05-13T16:50:47.821Z,101104.91
2023-05-13T16:53:51.938Z,101098.69
2023-05-13T16:57:09.464Z,101094.25
2023-05-13T17:00:15.016Z,101079.28
2023-05-13T17:03:33.396Z,101081.03
2023-05-13T17:06:45.971Z,101096.59
2023-05-13T17:09:50.385Z,101080.87
2023-05-13T17:12:59.743Z,101088.56
2023-05-13T17:16:06.463Z,101081.50
2023-05-13T17:19:18.626Z,101091.75
2023-05-13T17:22:26.497Z,101095.13
2023-05-13T17:25:30.541Z,101100.34
2023-05-13T17:28:34.460Z,101093.28
2023-05-13T17:31:39.782Z,101087.06
2023-05-13T17:34:51.484Z,101072.03
2023-05-13T17:37:54.803Z,101068.38
2023-05-13T17:40:59.262Z,101062.06
2023-05-13T17:44:09.412Z,101076.81
2023-05-13T17:47:13.070Z,101089.78
2023-05-13T17:50:31.558Z,101092.31
2023-05-13T17:53:38.833Z,101100.12
2023-05-13T17:56:50.748Z,101089.56
2023-05-13T17:59:55.857Z,101088.53
2023-05-13T18:03:00.533Z,101084.87
2023-05-13T18:06:17.559Z,101095.19
2023-05-13T18:09:21.716Z,101091.53
2023-05-13T18:12:32.687Z,101086.12
2023-05-13T18:15:42.036Z,101085.06
2023-05-13T18:18:49.527Z,101084.81
2023-05-13T18:22:04.578Z,101080.34
2023-05-13T18:25:10.989Z,101079.19
2023-05-13T18:28:22.662Z,101078.06
2023-05-13T18:31:27.941Z,101080.53
2023-05-13T18:34:40.656Z,101091.72
2023-05-13T18:37:48.676Z,101092.56
2023-05-13T18:40:56.483Z,101103.00
2023-05-13T18:44:05.128Z,101108.22
2023-05-13T18:47:08.904Z,101115.25
2023-05-13T18:50:14.652Z,101112.56
2023-05-13T18:53:28.476Z,101115.03
2023-05-13T18:56:41.441Z,101109.75
2023-05-13T18:59:47.996Z,101108.75
2023-05-13T19:03:04.117Z,101111.28
2023-05-13T19:06:12.476Z,101112.94
2023-05-13T19:09:22.907Z,101112.06
2023-05-13T19:12:34.337Z,101112.84
2023-05-13T19:15:44.802Z,101113.72
2023-05-13T19:19:00.451Z,101111.91
2023-05-13T19:22:20.623Z,101114.41
2023-05-13T19:25:26.066Z,101108.91
2023-05-13T19:28:37.549Z,101107.81
2023-05-13T19:31:51.713Z,101117.19
2023-05-13T19:35:01.637Z,101119.62
2023-05-13T19:38:08.588Z,101114.97
2023-05-13T19:41:16.762Z,101110.34
2023-05-13T19:44:27.923Z,101117.00
2023-05-13T19:47:43.480Z,101113.44
2023-05-13T19:50:53.986Z,101119.41
2023-05-13T19:54:04.672Z,101121.97
2023-05-13T19:57:25.726Z,101126.03
2023-05-13T20:00:32.502Z,101128.44
2023-05-13T20:03:36.512Z,101132.56
2023-05-13T20:06:41.692Z,101132.44
2023-05-13T20:09:45.017Z,101132.31
2023-05-13T20:12:52.077Z,101130.41
2023-05-13T20:15:59.518Z,101121.63
2023-05-13T20:19:13.078Z,101115.37
2023-05-13T20:22:27.385Z,101122.22
2023-05-13T20:25:37.366Z,101120.38
2023-05-13T20:28:40.853Z,101120.31
2023-05-13T20:31:48.747Z,101111.47
2023-05-13T20:34:54.621Z,101104.47
2023-05-13T20:38:06.971Z,101106.06
2023-05-13T20:41:17.728Z,101106.78
2023-05-13T20:44:25.418Z,101099.78
2023-05-13T20:47:31.644Z,101103.03
2023-05-13T20:50:37.579Z,101103.88
2023-05-13T20:53:42.979Z,101109.22
2023-05-13T20:56:47.978Z,101109.22
2023-05-13T20:59:53.461Z,101103.88
2023-05-13T21:02:56.635Z,101094.19
2023-05-13T21:06:06.356Z,101091.44
2023-05-13T21:09:09.009Z,101081.94
2023-05-13T21:12:12.959Z,101082.84
2023-05-13T21:15:21.664Z,101085.53
2023-05-13T21:18:25.252Z,101088.31
2023-05-13T21:21:36.632Z,101099.84
2023-05-13T21:24:44.414Z,101098.16
2023-05-13T21:27:48.720Z,101091.09
2023-05-13T21:30:51.736Z,101084.94
2023-05-13T21:33:54.636Z,101087.66
2023-05-13T21:36:58.725Z,101095.63
2023-05-13T21:40:02.382Z,101086.00
2023-05-13T21:43:06.692Z,101090.31
2023-05-13T21:46:10.084Z,101086.81
2023-05-13T21:49:14.159Z,101079.81
2023-05-13T21:52:18.126Z,101083.25
2023-05-13T21:55:21.184Z,101070.91
2023-05-13T21:58:24.084Z,101068.19
2023-05-13T22:01:27.342Z,101070.78
2023-05-13T22:04:30.785Z,101065.81
2023-05-13T22:07:33.838Z,101060.63
2023-05-13T22:10:37.523Z,101064.25
2023-05-13T22:13:41.128Z,101059.97
2023-05-13T22:16:46.408Z,101060.81
2023-05-13T22:19:52.946Z,101062.59
2023-05-13T22:22:56.657Z,101056.47
2023-05-13T22:25:59.452Z,101057.44
2023-05-13T22:29:03.865Z,101061.81
2023-05-13T22:32:07.582Z,101062.72
2023-05-13T22:35:10.663Z,101066.34
2023-05-13T22:38:13.334Z,101068.94
2023-05-13T22:41:20.718Z,101071.63
2023-05-13T22:44:24.129Z,101062.12
2023-05-13T22:47:37.424Z,101064.66
2023-05-13T22:50:40.358Z,101061.22
2023-05-13T22:53:43.922Z,101065.66
2023-05-13T22:56:46.434Z,101061.34
2023-05-13T22:59:49.666Z,101052.59
2023-05-13T23:02:52.911Z,101048.22
2023-05-13T23:05:56.495Z,101052.59
2023-05-13T23:08:58.953Z,101053.38
2023-05-13T23:12:01.731Z,101055.22
2023-05-13T23:15:04.647Z,101055.22
2023-05-13T23:18:07.417Z,101063.13
2023-05-13T23:21:10.051Z,101057.87
2023-05-13T23:24:13.155Z,101068.41
2023-05-13T23:27:16.093Z,101055.16
2023-05-13T23:30:21.655Z,101057.84
2023-05-13T23:33:25.623Z,101063.00
2023-05-13T23:36:29.106Z,101050.81
2023-05-13T23:39:31.470Z,101049.88
2023-05-13T23:42:36.676Z,101048.22
2023-05-13T23:45:39.281Z,101048.09
2023-05-13T23:48:43.147Z,101039.41
2023-05-13T23:51:45.545Z,101037.63
2023-05-13T23:54:48.708Z,101033.31
2023-05-13T23:57:51.485Z,101025.34
